sensor_id;sensor_type;location;lat;lon;timestamp;temperature;humidity
78896;HTU21D;68284;59.124;37.910;2023-05-07T00:00:48;2.57;56.52
78896;HTU21D;68284;59.124;37.910;2023-05-07T00:03:14;2.55;56.62
78896;HTU21D;68284;59.124;37.910;2023-05-07T00:05:40;2.55;56.74
78896;HTU21D;68284;59.124;37.910;2023-05-07T00:08:07;2.54;57.06
78896;HTU21D;68284;59.124;37.910;2023-05-07T00:10:33;2.50;57.32
78896;HTU21D;68284;59.124;37.910;2023-05-07T00:12:59;2.46;57.51
78896;HTU21D;68284;59.124;37.910;2023-05-07T00:15:26;2.42;57.83
78896;HTU21D;68284;59.124;37.910;2023-05-07T00:17:53;2.37;58.11
78896;HTU21D;68284;59.124;37.910;2023-05-07T00:20:19;2.31;58.07
78896;HTU21D;68284;59.124;37.910;2023-05-07T00:22:45;2.28;58.35
78896;HTU21D;68284;59.124;37.910;2023-05-07T00:25:12;2.23;58.45
78896;HTU21D;68284;59.124;37.910;2023-05-07T00:27:38;2.20;58.66
78896;HTU21D;68284;59.124;37.910;2023-05-07T00:30:05;2.19;58.83
78896;HTU21D;68284;59.124;37.910;2023-05-07T00:32:33;2.15;58.93
78896;HTU21D;68284;59.124;37.910;2023-05-07T00:34:59;2.13;59.15
78896;HTU21D;68284;59.124;37.910;2023-05-07T00:37:25;2.10;59.37
78896;HTU21D;68284;59.124;37.910;2023-05-07T00:39:52;2.08;59.38
78896;HTU21D;68284;59.124;37.910;2023-05-07T00:42:18;2.05;59.51
78896;HTU21D;68284;59.124;37.910;2023-05-07T00:44:44;2.05;59.64
78896;HTU21D;68284;59.124;37.910;2023-05-07T00:47:11;2.05;59.80
78896;HTU21D;68284;59.124;37.910;2023-05-07T00:49:37;2.07;59.90
78896;HTU21D;68284;59.124;37.910;2023-05-07T00:52:06;2.10;59.57
78896;HTU21D;68284;59.124;37.910;2023-05-07T00:54:34;2.15;59.66
78896;HTU21D;68284;59.124;37.910;2023-05-07T00:57:02;2.19;59.86
78896;HTU21D;68284;59.124;37.910;2023-05-07T00:59:28;2.19;60.07
78896;HTU21D;68284;59.124;37.910;2023-05-07T01:01:54;2.17;60.09
78896;HTU21D;68284;59.124;37.910;2023-05-07T01:04:21;2.14;60.39
78896;HTU21D;68284;59.124;37.910;2023-05-07T01:06:47;2.10;60.71
78896;HTU21D;68284;59.124;37.910;2023-05-07T01:09:13;2.05;60.77
78896;HTU21D;68284;59.124;37.910;2023-05-07T01:11:40;2.02;61.00
78896;HTU21D;68284;59.124;37.910;2023-05-07T01:14:07;1.98;61.03
78896;HTU21D;68284;59.124;37.910;2023-05-07T01:16:33;1.97;61.62
78896;HTU21D;68284;59.124;37.910;2023-05-07T01:19:00;1.95;61.47
78896;HTU21D;68284;59.124;37.910;2023-05-07T01:21:26;1.93;61.91
78896;HTU21D;68284;59.124;37.910;2023-05-07T01:23:57;1.91;61.67
78896;HTU21D;68284;59.124;37.910;2023-05-07T01:26:23;1.91;62.21
78896;HTU21D;68284;59.124;37.910;2023-05-07T01:28:50;1.88;61.67
78896;HTU21D;68284;59.124;37.910;2023-05-07T01:31:16;1.86;62.35
78896;HTU21D;68284;59.124;37.910;2023-05-07T01:33:44;1.87;62.40
78896;HTU21D;68284;59.124;37.910;2023-05-07T01:36:12;1.90;62.79
78896;HTU21D;68284;59.124;37.910;2023-05-07T01:38:39;1.87;62.66
78896;HTU21D;68284;59.124;37.910;2023-05-07T01:41:07;1.88;62.86
78896;HTU21D;68284;59.124;37.910;2023-05-07T01:43:34;1.87;62.94
78896;HTU21D;68284;59.124;37.910;2023-05-07T01:46:01;1.88;63.08
78896;HTU21D;68284;59.124;37.910;2023-05-07T01:48:28;1.92;63.44
78896;HTU21D;68284;59.124;37.910;2023-05-07T01:50:55;1.95;63.35
78896;HTU21D;68284;59.124;37.910;2023-05-07T01:53:21;2.01;63.81
78896;HTU21D;68284;59.124;37.910;2023-05-07T01:55:48;2.10;63.83
78896;HTU21D;68284;59.124;37.910;2023-05-07T01:58:15;2.22;63.86
78896;HTU21D;68284;59.124;37.910;2023-05-07T02:00:41;2.34;63.82
78896;HTU21D;68284;59.124;37.910;2023-05-07T02:03:08;2.46;63.81
78896;HTU21D;68284;59.124;37.910;2023-05-07T02:05:48;2.61;63.98
78896;HTU21D;68284;59.124;37.910;2023-05-07T02:08:22;2.73;63.92
78896;HTU21D;68284;59.124;37.910;2023-05-07T02:10:48;2.84;63.95
78896;HTU21D;68284;59.124;37.910;2023-05-07T02:13:15;2.93;64.61
78896;HTU21D;68284;59.124;37.910;2023-05-07T02:15:41;2.95;64.92
78896;HTU21D;68284;59.124;37.910;2023-05-07T02:18:08;2.91;65.22
78896;HTU21D;68284;59.124;37.910;2023-05-07T02:20:35;2.89;65.70
78896;HTU21D;68284;59.124;37.910;2023-05-07T02:23:02;2.84;66.04
78896;HTU21D;68284;59.124;37.910;2023-05-07T02:25:30;2.78;66.28
78896;HTU21D;68284;59.124;37.910;2023-05-07T02:27:56;2.73;66.57
78896;HTU21D;68284;59.124;37.910;2023-05-07T02:30:31;2.70;66.91
78896;HTU21D;68284;59.124;37.910;2023-05-07T02:32:58;2.70;67.52
78896;HTU21D;68284;59.124;37.910;2023-05-07T02:35:25;2.72;67.39
78896;HTU21D;68284;59.124;37.910;2023-05-07T02:37:52;2.74;67.48
78896;HTU21D;68284;59.124;37.910;2023-05-07T02:40:18;2.78;67.30
78896;HTU21D;68284;59.124;37.910;2023-05-07T02:42:45;2.86;67.07
78896;HTU21D;68284;59.124;37.910;2023-05-07T02:45:11;2.93;66.69
78896;HTU21D;68284;59.124;37.910;2023-05-07T02:47:38;3.06;66.41
78896;HTU21D;68284;59.124;37.910;2023-05-07T02:50:05;3.17;65.90
78896;HTU21D;68284;59.124;37.910;2023-05-07T02:52:31;3.28;65.63
78896;HTU21D;68284;59.124;37.910;2023-05-07T02:54:58;3.39;65.32
78896;HTU21D;68284;59.124;37.910;2023-05-07T02:57:24;3.47;65.24
78896;HTU21D;68284;59.124;37.910;2023-05-07T02:59:50;3.53;65.17
78896;HTU21D;68284;59.124;37.910;2023-05-07T03:02:18;3.59;65.11
78896;HTU21D;68284;59.124;37.910;2023-05-07T03:04:45;3.63;65.11
78896;HTU21D;68284;59.124;37.910;2023-05-07T03:07:11;3.65;65.15
78896;HTU21D;68284;59.124;37.910;2023-05-07T03:09:37;3.67;65.24
78896;HTU21D;68284;59.124;37.910;2023-05-07T03:12:03;3.70;65.31
78896;HTU21D;68284;59.124;37.910;2023-05-07T03:14:30;3.73;65.46
78896;HTU21D;68284;59.124;37.910;2023-05-07T03:16:56;3.73;65.57
78896;HTU21D;68284;59.124;37.910;2023-05-07T03:19:22;3.75;65.58
78896;HTU21D;68284;59.124;37.910;2023-05-07T03:21:49;3.75;65.37
78896;HTU21D;68284;59.124;37.910;2023-05-07T03:24:15;3.75;65.17
78896;HTU21D;68284;59.124;37.910;2023-05-07T03:26:41;3.80;64.92
78896;HTU21D;68284;59.124;37.910;2023-05-07T03:29:07;3.84;64.80
78896;HTU21D;68284;59.124;37.910;2023-05-07T03:31:34;3.87;64.78
78896;HTU21D;68284;59.124;37.910;2023-05-07T03:34:01;3.87;64.79
78896;HTU21D;68284;59.124;37.910;2023-05-07T03:36:27;3.87;64.73
78896;HTU21D;68284;59.124;37.910;2023-05-07T03:38:55;3.80;64.66
78896;HTU21D;68284;59.124;37.910;2023-05-07T03:41:24;3.74;64.56
78896;HTU21D;68284;59.124;37.910;2023-05-07T03:43:51;3.65;64.58
78896;HTU21D;68284;59.124;37.910;2023-05-07T03:46:18;3.60;64.69
78896;HTU21D;68284;59.124;37.910;2023-05-07T03:48:44;3.59;64.66
78896;HTU21D;68284;59.124;37.910;2023-05-07T03:51:12;3.60;64.56
78896;HTU21D;68284;59.124;37.910;2023-05-07T03:53:39;3.61;64.49
78896;HTU21D;68284;59.124;37.910;2023-05-07T03:56:05;3.65;64.37
78896;HTU21D;68284;59.124;37.910;2023-05-07T03:58:35;3.71;64.25
78896;HTU21D;68284;59.124;37.910;2023-05-07T04:01:06;3.77;64.05
78896;HTU21D;68284;59.124;37.910;2023-05-07T04:03:33;3.83;63.85
78896;HTU21D;68284;59.124;37.910;2023-05-07T04:06:00;3.91;63.74
78896;HTU21D;68284;59.124;37.910;2023-05-07T04:08:26;4.03;63.34
78896;HTU21D;68284;59.124;37.910;2023-05-07T04:10:55;4.13;63.10
78896;HTU21D;68284;59.124;37.910;2023-05-07T04:13:21;4.23;62.94
78896;HTU21D;68284;59.124;37.910;2023-05-07T04:15:47;4.31;62.76
78896;HTU21D;68284;59.124;37.910;2023-05-07T04:18:17;4.42;62.47
78896;HTU21D;68284;59.124;37.910;2023-05-07T04:20:45;4.47;62.20
78896;HTU21D;68284;59.124;37.910;2023-05-07T04:23:14;4.54;61.98
78896;HTU21D;68284;59.124;37.910;2023-05-07T04:25:40;4.64;61.82
78896;HTU21D;68284;59.124;37.910;2023-05-07T04:28:23;4.78;61.55
78896;HTU21D;68284;59.124;37.910;2023-05-07T04:30:50;4.90;61.24
78896;HTU21D;68284;59.124;37.910;2023-05-07T04:33:17;4.98;60.85
78896;HTU21D;68284;59.124;37.910;2023-05-07T04:35:44;5.04;60.44
78896;HTU21D;68284;59.124;37.910;2023-05-07T04:38:10;5.08;60.12
78896;HTU21D;68284;59.124;37.910;2023-05-07T04:40:37;5.12;60.02
78896;HTU21D;68284;59.124;37.910;2023-05-07T04:43:04;5.19;59.90
78896;HTU21D;68284;59.124;37.910;2023-05-07T04:45:34;5.28;59.77
78896;HTU21D;68284;59.124;37.910;2023-05-07T04:48:01;5.38;59.41
78896;HTU21D;68284;59.124;37.910;2023-05-07T04:50:29;5.43;58.88
78896;HTU21D;68284;59.124;37.910;2023-05-07T04:53:00;5.48;58.51
78896;HTU21D;68284;59.124;37.910;2023-05-07T04:55:26;5.52;58.23
78896;HTU21D;68284;59.124;37.910;2023-05-07T04:57:52;5.59;58.02
78896;HTU21D;68284;59.124;37.910;2023-05-07T05:00:20;5.64;57.72
78896;HTU21D;68284;59.124;37.910;2023-05-07T05:02:48;5.75;57.42
78896;HTU21D;68284;59.124;37.910;2023-05-07T05:05:18;5.81;56.86
78896;HTU21D;68284;59.124;37.910;2023-05-07T05:07:45;5.86;56.60
78896;HTU21D;68284;59.124;37.910;2023-05-07T05:10:12;5.92;56.07
78896;HTU21D;68284;59.124;37.910;2023-05-07T05:12:39;5.96;55.58
78896;HTU21D;68284;59.124;37.910;2023-05-07T05:15:07;6.00;55.39
78896;HTU21D;68284;59.124;37.910;2023-05-07T05:17:33;6.02;55.40
78896;HTU21D;68284;59.124;37.910;2023-05-07T05:20:03;6.09;55.23
78896;HTU21D;68284;59.124;37.910;2023-05-07T05:22:30;6.16;55.21
78896;HTU21D;68284;59.124;37.910;2023-05-07T05:24:58;6.21;54.95
78896;HTU21D;68284;59.124;37.910;2023-05-07T05:27:25;6.27;54.65
78896;HTU21D;68284;59.124;37.910;2023-05-07T05:29:51;6.35;54.59
78896;HTU21D;68284;59.124;37.910;2023-05-07T05:32:18;6.40;54.17
78896;HTU21D;68284;59.124;37.910;2023-05-07T05:34:44;6.46;53.78
78896;HTU21D;68284;59.124;37.910;2023-05-07T05:37:11;6.52;53.61
78896;HTU21D;68284;59.124;37.910;2023-05-07T05:39:37;6.57;53.20
78896;HTU21D;68284;59.124;37.910;2023-05-07T05:42:04;6.65;53.55
78896;HTU21D;68284;59.124;37.910;2023-05-07T05:44:33;6.75;53.20
78896;HTU21D;68284;59.124;37.910;2023-05-07T05:46:59;6.89;52.91
78896;HTU21D;68284;59.124;37.910;2023-05-07T05:49:26;7.04;52.34
78896;HTU21D;68284;59.124;37.910;2023-05-07T05:51:52;7.17;52.18
78896;HTU21D;68284;59.124;37.910;2023-05-07T05:54:20;7.28;51.82
78896;HTU21D;68284;59.124;37.910;2023-05-07T05:56:47;7.37;51.69
78896;HTU21D;68284;59.124;37.910;2023-05-07T05:59:14;7.48;51.41
78896;HTU21D;68284;59.124;37.910;2023-05-07T06:01:40;7.54;50.64
78896;HTU21D;68284;59.124;37.910;2023-05-07T06:04:06;7.63;50.99
78896;HTU21D;68284;59.124;37.910;2023-05-07T06:06:33;7.75;50.33
78896;HTU21D;68284;59.124;37.910;2023-05-07T06:09:01;7.86;48.89
78896;HTU21D;68284;59.124;37.910;2023-05-07T06:11:35;7.92;48.21
78896;HTU21D;68284;59.124;37.910;2023-05-07T06:14:01;7.96;47.76
78896;HTU21D;68284;59.124;37.910;2023-05-07T06:16:29;7.99;48.37
78896;HTU21D;68284;59.124;37.910;2023-05-07T06:18:56;8.07;48.11
78896;HTU21D;68284;59.124;37.910;2023-05-07T06:21:22;8.14;47.66
78896;HTU21D;68284;59.124;37.910;2023-05-07T06:23:48;8.17;47.15
78896;HTU21D;68284;59.124;37.910;2023-05-07T06:26:15;8.15;46.64
78896;HTU21D;68284;59.124;37.910;2023-05-07T06:28:44;8.13;46.80
78896;HTU21D;68284;59.124;37.910;2023-05-07T06:31:17;8.15;46.91
78896;HTU21D;68284;59.124;37.910;2023-05-07T06:34:00;8.19;47.02
78896;HTU21D;68284;59.124;37.910;2023-05-07T06:36:34;8.22;46.88
78896;HTU21D;68284;59.124;37.910;2023-05-07T06:39:06;8.34;47.07
78896;HTU21D;68284;59.124;37.910;2023-05-07T06:41:32;8.44;46.70
78896;HTU21D;68284;59.124;37.910;2023-05-07T06:44:05;8.47;46.25
78896;HTU21D;68284;59.124;37.910;2023-05-07T06:46:37;8.39;45.90
78896;HTU21D;68284;59.124;37.910;2023-05-07T06:49:05;8.27;45.76
78896;HTU21D;68284;59.124;37.910;2023-05-07T06:51:31;8.18;45.62
78896;HTU21D;68284;59.124;37.910;2023-05-07T06:54:03;8.14;45.59
78896;HTU21D;68284;59.124;37.910;2023-05-07T06:56:32;8.16;45.46
78896;HTU21D;68284;59.124;37.910;2023-05-07T06:59:00;8.26;45.11
78896;HTU21D;68284;59.124;37.910;2023-05-07T07:01:29;8.37;44.74
78896;HTU21D;68284;59.124;37.910;2023-05-07T07:03:55;8.50;44.34
78896;HTU21D;68284;59.124;37.910;2023-05-07T07:06:22;8.61;44.33
78896;HTU21D;68284;59.124;37.910;2023-05-07T07:08:48;8.62;44.28
78896;HTU21D;68284;59.124;37.910;2023-05-07T07:11:16;8.56;44.30
78896;HTU21D;68284;59.124;37.910;2023-05-07T07:13:43;8.49;44.40
78896;HTU21D;68284;59.124;37.910;2023-05-07T07:16:09;8.42;44.36
78896;HTU21D;68284;59.124;37.910;2023-05-07T07:18:36;8.39;44.32
78896;HTU21D;68284;59.124;37.910;2023-05-07T07:21:04;8.39;44.44
78896;HTU21D;68284;59.124;37.910;2023-05-07T07:23:30;8.34;44.16
78896;HTU21D;68284;59.124;37.910;2023-05-07T07:25:56;8.26;44.16
78896;HTU21D;68284;59.124;37.910;2023-05-07T07:28:23;8.20;44.33
78896;HTU21D;68284;59.124;37.910;2023-05-07T07:30:51;8.24;44.24
78896;HTU21D;68284;59.124;37.910;2023-05-07T07:33:18;8.34;44.16
78896;HTU21D;68284;59.124;37.910;2023-05-07T07:35:44;8.57;44.05
78896;HTU21D;68284;59.124;37.910;2023-05-07T07:38:10;8.83;43.51
78896;HTU21D;68284;59.124;37.910;2023-05-07T07:40:36;9.07;42.87
78896;HTU21D;68284;59.124;37.910;2023-05-07T07:43:04;9.22;42.00
78896;HTU21D;68284;59.124;37.910;2023-05-07T07:45:31;9.31;41.87
78896;HTU21D;68284;59.124;37.910;2023-05-07T07:47:58;9.39;41.38
78896;HTU21D;68284;59.124;37.910;2023-05-07T07:50:24;9.46;41.17
78896;HTU21D;68284;59.124;37.910;2023-05-07T07:52:50;9.52;40.69
78896;HTU21D;68284;59.124;37.910;2023-05-07T07:55:19;9.50;40.75
78896;HTU21D;68284;59.124;37.910;2023-05-07T07:57:49;9.45;41.06
78896;HTU21D;68284;59.124;37.910;2023-05-07T08:00:16;9.41;41.50
78896;HTU21D;68284;59.124;37.910;2023-05-07T08:02:43;9.40;41.17
78896;HTU21D;68284;59.124;37.910;2023-05-07T08:05:12;9.33;41.16
78896;HTU21D;68284;59.124;37.910;2023-05-07T08:07:38;9.31;41.26
78896;HTU21D;68284;59.124;37.910;2023-05-07T08:10:05;9.31;41.04
78896;HTU21D;68284;59.124;37.910;2023-05-07T08:12:32;9.33;41.10
78896;HTU21D;68284;59.124;37.910;2023-05-07T08:14:58;9.42;41.07
78896;HTU21D;68284;59.124;37.910;2023-05-07T08:17:24;9.55;41.13
78896;HTU21D;68284;59.124;37.910;2023-05-07T08:19:51;9.68;40.86
78896;HTU21D;68284;59.124;37.910;2023-05-07T08:22:18;9.77;41.30
78896;HTU21D;68284;59.124;37.910;2023-05-07T08:24:44;9.90;41.62
78896;HTU21D;68284;59.124;37.910;2023-05-07T08:27:11;10.12;41.29
78896;HTU21D;68284;59.124;37.910;2023-05-07T08:29:40;10.30;40.90
78896;HTU21D;68284;59.124;37.910;2023-05-07T08:32:07;10.41;41.18
78896;HTU21D;68284;59.124;37.910;2023-05-07T08:34:33;10.38;41.23
78896;HTU21D;68284;59.124;37.910;2023-05-07T08:37:02;10.33;41.31
78896;HTU21D;68284;59.124;37.910;2023-05-07T08:39:29;10.29;41.10
78896;HTU21D;68284;59.124;37.910;2023-05-07T08:41:56;10.37;40.87
78896;HTU21D;68284;59.124;37.910;2023-05-07T08:44:27;10.52;40.46
78896;HTU21D;68284;59.124;37.910;2023-05-07T08:46:56;10.57;39.97
78896;HTU21D;68284;59.124;37.910;2023-05-07T08:49:25;10.46;39.45
78896;HTU21D;68284;59.124;37.910;2023-05-07T08:51:52;10.36;39.18
78896;HTU21D;68284;59.124;37.910;2023-05-07T08:54:20;10.34;38.77
78896;HTU21D;68284;59.124;37.910;2023-05-07T08:56:48;10.31;38.50
78896;HTU21D;68284;59.124;37.910;2023-05-07T08:59:15;10.25;38.53
78896;HTU21D;68284;59.124;37.910;2023-05-07T09:01:42;10.15;38.25
78896;HTU21D;68284;59.124;37.910;2023-05-07T09:04:09;10.06;38.25
78896;HTU21D;68284;59.124;37.910;2023-05-07T09:06:36;10.01;38.27
78896;HTU21D;68284;59.124;37.910;2023-05-07T09:09:05;10.09;38.10
78896;HTU21D;68284;59.124;37.910;2023-05-07T09:11:33;10.25;37.88
78896;HTU21D;68284;59.124;37.910;2023-05-07T09:14:00;10.50;37.50
78896;HTU21D;68284;59.124;37.910;2023-05-07T09:16:30;10.63;36.09
78896;HTU21D;68284;59.124;37.910;2023-05-07T09:18:59;10.67;35.77
78896;HTU21D;68284;59.124;37.910;2023-05-07T09:21:29;10.63;35.28
78896;HTU21D;68284;59.124;37.910;2023-05-07T09:23:58;10.56;35.20
78896;HTU21D;68284;59.124;37.910;2023-05-07T09:26:33;10.54;35.56
78896;HTU21D;68284;59.124;37.910;2023-05-07T09:29:01;10.63;35.53
78896;HTU21D;68284;59.124;37.910;2023-05-07T09:31:27;10.67;35.60
78896;HTU21D;68284;59.124;37.910;2023-05-07T09:33:55;10.69;35.62
78896;HTU21D;68284;59.124;37.910;2023-05-07T09:36:23;10.67;35.77
78896;HTU21D;68284;59.124;37.910;2023-05-07T09:38:50;10.63;35.51
78896;HTU21D;68284;59.124;37.910;2023-05-07T09:41:18;10.49;35.60
78896;HTU21D;68284;59.124;37.910;2023-05-07T09:44:02;10.31;35.66
78896;HTU21D;68284;59.124;37.910;2023-05-07T09:46:36;10.26;35.73
78896;HTU21D;68284;59.124;37.910;2023-05-07T09:49:19;10.30;36.09
78896;HTU21D;68284;59.124;37.910;2023-05-07T09:52:06;10.46;36.50
78896;HTU21D;68284;59.124;37.910;2023-05-07T09:54:37;10.64;36.57
78896;HTU21D;68284;59.124;37.910;2023-05-07T09:57:05;10.69;36.15
78896;HTU21D;68284;59.124;37.910;2023-05-07T09:59:34;10.82;35.78
78896;HTU21D;68284;59.124;37.910;2023-05-07T10:02:05;10.99;35.47
78896;HTU21D;68284;59.124;37.910;2023-05-07T10:04:39;11.12;35.34
78896;HTU21D;68284;59.124;37.910;2023-05-07T10:07:07;11.23;34.99
78896;HTU21D;68284;59.124;37.910;2023-05-07T10:09:35;11.31;34.66
78896;HTU21D;68284;59.124;37.910;2023-05-07T10:12:06;11.46;34.29
78896;HTU21D;68284;59.124;37.910;2023-05-07T10:14:33;11.60;33.64
78896;HTU21D;68284;59.124;37.910;2023-05-07T10:17:00;11.73;33.47
78896;HTU21D;68284;59.124;37.910;2023-05-07T10:19:29;11.85;33.15
78896;HTU21D;68284;59.124;37.910;2023-05-07T10:22:03;11.96;32.82
78896;HTU21D;68284;59.124;37.910;2023-05-07T10:24:33;12.00;32.85
78896;HTU21D;68284;59.124;37.910;2023-05-07T10:27:11;11.86;32.56
78896;HTU21D;68284;59.124;37.910;2023-05-07T10:34:56;11.10;33.04
78896;HTU21D;68284;59.124;37.910;2023-05-07T10:37:25;10.88;33.02
78896;HTU21D;68284;59.124;37.910;2023-05-07T10:39:54;10.72;32.97
78896;HTU21D;68284;59.124;37.910;2023-05-07T10:42:21;10.71;32.95
78896;HTU21D;68284;59.124;37.910;2023-05-07T10:44:52;11.04;32.68
78896;HTU21D;68284;59.124;37.910;2023-05-07T10:47:24;11.32;32.49
78896;HTU21D;68284;59.124;37.910;2023-05-07T10:52:26;12.08;32.34
78896;HTU21D;68284;59.124;37.910;2023-05-07T10:55:23;12.28;30.92
78896;HTU21D;68284;59.124;37.910;2023-05-07T10:58:29;12.29;28.58
78896;HTU21D;68284;59.124;37.910;2023-05-07T11:01:55;12.01;27.78
78896;HTU21D;68284;59.124;37.910;2023-05-07T11:04:35;11.74;28.55
78896;HTU21D;68284;59.124;37.910;2023-05-07T11:07:24;11.49;28.11
78896;HTU21D;68284;59.124;37.910;2023-05-07T11:09:56;11.44;28.81
78896;HTU21D;68284;59.124;37.910;2023-05-07T11:12:51;11.61;28.37
78896;HTU21D;68284;59.124;37.910;2023-05-07T11:15:37;11.61;28.21
78896;HTU21D;68284;59.124;37.910;2023-05-07T11:18:11;11.56;28.79
78896;HTU21D;68284;59.124;37.910;2023-05-07T11:20:47;11.47;28.92
78896;HTU21D;68284;59.124;37.910;2023-05-07T11:26:32;11.38;29.16
78896;HTU21D;68284;59.124;37.910;2023-05-07T11:29:11;11.45;29.13
78896;HTU21D;68284;59.124;37.910;2023-05-07T11:31:40;11.58;28.61
78896;HTU21D;68284;59.124;37.910;2023-05-07T11:34:08;11.84;28.24
78896;HTU21D;68284;59.124;37.910;2023-05-07T11:36:36;12.43;27.87
78896;HTU21D;68284;59.124;37.910;2023-05-07T11:39:30;13.43;27.58
78896;HTU21D;68284;59.124;37.910;2023-05-07T11:41:59;14.44;26.29
78896;HTU21D;68284;59.124;37.910;2023-05-07T11:44:42;15.26;24.24
78896;HTU21D;68284;59.124;37.910;2023-05-07T11:47:10;15.82;24.19
78896;HTU21D;68284;59.124;37.910;2023-05-07T11:49:37;15.82;23.62
78896;HTU21D;68284;59.124;37.910;2023-05-07T11:52:03;15.58;23.34
78896;HTU21D;68284;59.124;37.910;2023-05-07T11:54:37;15.19;22.87
78896;HTU21D;68284;59.124;37.910;2023-05-07T11:57:04;14.80;23.32
78896;HTU21D;68284;59.124;37.910;2023-05-07T11:59:39;14.41;23.28
78896;HTU21D;68284;59.124;37.910;2023-05-07T12:02:06;14.13;23.62
78896;HTU21D;68284;59.124;37.910;2023-05-07T12:04:33;14.08;23.48
78896;HTU21D;68284;59.124;37.910;2023-05-07T12:06:59;14.27;23.43
78896;HTU21D;68284;59.124;37.910;2023-05-07T12:09:25;14.45;23.58
78896;HTU21D;68284;59.124;37.910;2023-05-07T12:11:52;14.55;23.02
78896;HTU21D;68284;59.124;37.910;2023-05-07T12:14:18;14.36;22.59
78896;HTU21D;68284;59.124;37.910;2023-05-07T12:16:46;13.96;22.95
78896;HTU21D;68284;59.124;37.910;2023-05-07T12:19:13;13.67;23.40
78896;HTU21D;68284;59.124;37.910;2023-05-07T12:21:40;13.61;23.48
78896;HTU21D;68284;59.124;37.910;2023-05-07T12:24:07;13.66;23.47
78896;HTU21D;68284;59.124;37.910;2023-05-07T12:26:38;13.62;23.68
78896;HTU21D;68284;59.124;37.910;2023-05-07T12:29:04;13.51;23.89
78896;HTU21D;68284;59.124;37.910;2023-05-07T12:31:31;13.36;23.95
78896;HTU21D;68284;59.124;37.910;2023-05-07T12:33:57;13.25;23.68
78896;HTU21D;68284;59.124;37.910;2023-05-07T12:36:23;13.37;23.84
78896;HTU21D;68284;59.124;37.910;2023-05-07T12:38:50;14.08;23.25
78896;HTU21D;68284;59.124;37.910;2023-05-07T12:41:17;14.77;22.51
78896;HTU21D;68284;59.124;37.910;2023-05-07T12:43:44;14.92;21.90
78896;HTU21D;68284;59.124;37.910;2023-05-07T12:46:11;14.66;21.96
78896;HTU21D;68284;59.124;37.910;2023-05-07T12:48:44;14.30;22.16
78896;HTU21D;68284;59.124;37.910;2023-05-07T12:51:12;13.98;22.57
78896;HTU21D;68284;59.124;37.910;2023-05-07T12:53:40;13.74;22.83
78896;HTU21D;68284;59.124;37.910;2023-05-07T12:56:09;13.56;23.10
78896;HTU21D;68284;59.124;37.910;2023-05-07T12:58:36;13.39;22.90
78896;HTU21D;68284;59.124;37.910;2023-05-07T13:01:07;13.18;23.21
78896;HTU21D;68284;59.124;37.910;2023-05-07T13:03:36;12.96;23.38
78896;HTU21D;68284;59.124;37.910;2023-05-07T13:06:08;12.82;23.61
78896;HTU21D;68284;59.124;37.910;2023-05-07T13:08:37;13.40;23.45
78896;HTU21D;68284;59.124;37.910;2023-05-07T13:11:08;14.20;22.67
78896;HTU21D;68284;59.124;37.910;2023-05-07T13:13:36;14.39;22.52
78896;HTU21D;68284;59.124;37.910;2023-05-07T13:16:03;14.52;22.47
78896;HTU21D;68284;59.124;37.910;2023-05-07T13:18:30;15.17;22.07
78896;HTU21D;68284;59.124;37.910;2023-05-07T13:20:57;16.12;21.37
78896;HTU21D;68284;59.124;37.910;2023-05-07T13:23:23;17.08;20.33
78896;HTU21D;68284;59.124;37.910;2023-05-07T13:25:50;17.96;19.36
78896;HTU21D;68284;59.124;37.910;2023-05-07T13:28:17;18.79;18.51
78896;HTU21D;68284;59.124;37.910;2023-05-07T13:30:43;19.63;17.93
78896;HTU21D;68284;59.124;37.910;2023-05-07T13:33:10;20.31;16.93
78896;HTU21D;68284;59.124;37.910;2023-05-07T13:35:36;20.87;16.13
78896;HTU21D;68284;59.124;37.910;2023-05-07T13:38:03;21.31;15.78
78896;HTU21D;68284;59.124;37.910;2023-05-07T13:40:29;21.53;15.07
78896;HTU21D;68284;59.124;37.910;2023-05-07T13:42:59;21.84;14.84
78896;HTU21D;68284;59.124;37.910;2023-05-07T13:45:31;22.27;14.48
78896;HTU21D;68284;59.124;37.910;2023-05-07T13:47:57;22.71;14.23
78896;HTU21D;68284;59.124;37.910;2023-05-07T13:50:23;23.02;13.87
78896;HTU21D;68284;59.124;37.910;2023-05-07T13:52:50;22.99;13.67
78896;HTU21D;68284;59.124;37.910;2023-05-07T13:55:20;22.61;13.66
78896;HTU21D;68284;59.124;37.910;2023-05-07T13:57:47;22.62;13.62
78896;HTU21D;68284;59.124;37.910;2023-05-07T14:00:14;22.83;13.46
78896;HTU21D;68284;59.124;37.910;2023-05-07T14:02:42;22.81;13.42
78896;HTU21D;68284;59.124;37.910;2023-05-07T14:05:09;22.85;13.26
78896;HTU21D;68284;59.124;37.910;2023-05-07T14:07:36;23.07;13.13
78896;HTU21D;68284;59.124;37.910;2023-05-07T14:10:02;23.40;12.71
78896;HTU21D;68284;59.124;37.910;2023-05-07T14:12:31;23.68;12.31
78896;HTU21D;68284;59.124;37.910;2023-05-07T14:14:57;23.89;11.98
78896;HTU21D;68284;59.124;37.910;2023-05-07T14:17:24;23.92;11.85
78896;HTU21D;68284;59.124;37.910;2023-05-07T14:19:53;23.79;11.66
78896;HTU21D;68284;59.124;37.910;2023-05-07T14:22:23;23.62;11.63
78896;HTU21D;68284;59.124;37.910;2023-05-07T14:24:49;23.49;11.79
78896;HTU21D;68284;59.124;37.910;2023-05-07T14:27:16;23.16;11.90
78896;HTU21D;68284;59.124;37.910;2023-05-07T14:29:42;22.17;12.21
78896;HTU21D;68284;59.124;37.910;2023-05-07T14:32:09;20.86;12.98
78896;HTU21D;68284;59.124;37.910;2023-05-07T14:34:35;19.58;13.97
78896;HTU21D;68284;59.124;37.910;2023-05-07T14:37:01;18.39;14.81
78896;HTU21D;68284;59.124;37.910;2023-05-07T14:39:28;17.34;15.55
78896;HTU21D;68284;59.124;37.910;2023-05-07T14:41:54;16.46;16.25
78896;HTU21D;68284;59.124;37.910;2023-05-07T14:44:21;15.66;16.96
78896;HTU21D;68284;59.124;37.910;2023-05-07T14:46:48;14.94;17.76
78896;HTU21D;68284;59.124;37.910;2023-05-07T14:49:14;14.35;18.43
78896;HTU21D;68284;59.124;37.910;2023-05-07T14:51:46;13.92;19.04
78896;HTU21D;68284;59.124;37.910;2023-05-07T14:54:13;13.63;19.24
78896;HTU21D;68284;59.124;37.910;2023-05-07T14:56:41;13.48;19.69
78896;HTU21D;68284;59.124;37.910;2023-05-07T14:59:08;13.31;19.98
78896;HTU21D;68284;59.124;37.910;2023-05-07T15:01:35;13.22;20.29
78896;HTU21D;68284;59.124;37.910;2023-05-07T15:04:03;13.11;20.61
78896;HTU21D;68284;59.124;37.910;2023-05-07T15:06:31;12.99;21.06
78896;HTU21D;68284;59.124;37.910;2023-05-07T15:08:57;12.84;21.95
78896;HTU21D;68284;59.124;37.910;2023-05-07T15:11:23;12.74;23.14
78896;HTU21D;68284;59.124;37.910;2023-05-07T15:13:50;13.03;22.65
78896;HTU21D;68284;59.124;37.910;2023-05-07T15:16:16;13.66;23.16
78896;HTU21D;68284;59.124;37.910;2023-05-07T15:18:42;14.35;23.28
78896;HTU21D;68284;59.124;37.910;2023-05-07T15:21:08;15.12;22.67
78896;HTU21D;68284;59.124;37.910;2023-05-07T15:23:36;15.95;21.93
78896;HTU21D;68284;59.124;37.910;2023-05-07T15:26:02;16.70;21.18
78896;HTU21D;68284;59.124;37.910;2023-05-07T15:28:28;17.30;20.68